Time;durP1;ratioP1;P1;durP2;ratioP2;P2;SDS_P1;SDS_P2;PMS_P1;PMS_P2;Temp;Humidity;BMP_temperature;BMP_pressure;BME280_temperature;BME280_humidity;BME280_pressure;Samples;Min_cycle;Max_cycle;Signal;HPM_P1;HPM_P2
2021/08/21 00:01:32;;;;;;;5.78;5.28;;;19.40;99.90;;;;;;5035649;28;20502;-70
2021/08/21 00:03:59;;;;;;;6.87;5.57;;;19.30;99.90;;;;;;5035532;28;20218;-70
2021/08/21 00:06:26;;;;;;;5.60;5.10;;;19.20;99.90;;;;;;5035276;28;20537;-70
2021/08/21 00:08:53;;;;;;;5.90;5.30;;;19.10;99.90;;;;;;5035364;28;20473;-70
2021/08/21 00:11:20;;;;;;;6.30;5.47;;;19.10;99.90;;;;;;5035352;28;20220;-71
2021/08/21 00:13:47;;;;;;;5.32;4.93;;;19.00;99.90;;;;;;5035409;28;20230;-70
2021/08/21 00:16:14;;;;;;;6.45;5.88;;;19.00;99.90;;;;;;5035061;28;20640;-71
2021/08/21 00:18:42;;;;;;;6.72;6.07;;;18.80;99.90;;;;;;5035334;28;20196;-70
2021/08/21 00:21:09;;;;;;;7.32;5.82;;;18.80;99.90;;;;;;5035150;28;20224;-70
2021/08/21 00:23:35;;;;;;;7.28;6.00;;;18.80;99.90;;;;;;5034921;28;20200;-70
2021/08/21 00:26:02;;;;;;;5.95;5.35;;;18.80;99.90;;;;;;5035000;28;20208;-70
2021/08/21 00:28:29;;;;;;;6.33;5.73;;;18.80;99.90;;;;;;5035080;28;20311;-71
2021/08/21 00:30:56;;;;;;;8.80;5.47;;;18.80;99.90;;;;;;5034864;28;20552;-71
2021/08/21 00:33:23;;;;;;;6.40;5.80;;;18.90;99.90;;;;;;5034811;28;20237;-71
2021/08/21 00:35:51;;;;;;;7.00;6.28;;;18.90;99.90;;;;;;5034619;28;20200;-70
2021/08/21 00:38:18;;;;;;;7.27;6.13;;;19.00;99.90;;;;;;5034863;28;20205;-70
2021/08/21 00:40:44;;;;;;;6.67;6.07;;;19.10;99.90;;;;;;5034453;28;20466;-70
2021/08/21 00:43:11;;;;;;;6.78;6.13;;;19.10;99.90;;;;;;5034928;28;20447;-70
2021/08/21 00:45:38;;;;;;;6.72;5.75;;;19.00;99.90;;;;;;5034539;28;20211;-71
2021/08/21 00:48:07;;;;;;;6.05;5.45;;;19.00;99.90;;;;;;5034507;28;20296;-70
2021/08/21 00:50:34;;;;;;;7.95;6.28;;;19.10;99.90;;;;;;5034577;28;20250;-70
2021/08/21 00:53:02;;;;;;;6.45;5.85;;;19.10;99.90;;;;;;5034920;28;20220;-70
2021/08/21 00:55:29;;;;;;;6.53;5.93;;;18.90;99.90;;;;;;5034478;28;20210;-70
2021/08/21 00:57:56;;;;;;;7.47;6.30;;;18.80;99.90;;;;;;5034557;28;20215;-70
2021/08/21 01:00:23;;;;;;;7.38;5.78;;;18.70;99.90;;;;;;5034419;28;20291;-71
2021/08/21 01:02:50;;;;;;;6.82;6.13;;;18.70;99.90;;;;;;5034555;28;20209;-70
2021/08/21 01:05:19;;;;;;;7.65;6.85;;;18.70;99.90;;;;;;5034155;28;20299;-70
2021/08/21 01:07:46;;;;;;;6.57;5.18;;;18.80;99.90;;;;;;5034402;28;20617;-70
2021/08/21 01:10:16;;;;;;;5.68;5.07;;;18.80;99.90;;;;;;5034256;28;20250;-70
2021/08/21 01:12:46;;;;;;;5.37;4.87;;;18.80;99.90;;;;;;5034375;28;20276;-70
2021/08/21 01:15:13;;;;;;;5.43;4.85;;;18.80;99.90;;;;;;5034066;28;20812;-70
2021/08/21 01:17:41;;;;;;;5.90;5.30;;;18.80;99.90;;;;;;5034348;28;20634;-70
2021/08/21 01:20:09;;;;;;;5.28;4.78;;;18.80;99.90;;;;;;5034106;28;20207;-70
2021/08/21 01:22:36;;;;;;;6.47;5.85;;;18.90;99.90;;;;;;5034120;28;20307;-70
2021/08/21 01:25:10;;;;;;;6.60;5.80;;;18.80;99.90;;;;;;5033884;28;20201;-70
2021/08/21 01:27:38;;;;;;;7.03;6.13;;;18.90;99.90;;;;;;5034051;28;20204;-70
2021/08/21 01:30:08;;;;;;;6.38;5.72;;;18.80;99.90;;;;;;5033871;28;20255;-70
2021/08/21 01:32:35;;;;;;;7.68;6.60;;;18.80;99.90;;;;;;5033817;28;20225;-70
2021/08/21 01:35:08;;;;;;;8.50;6.57;;;18.80;99.90;;;;;;5033775;28;20214;-71
2021/08/21 01:37:35;;;;;;;7.55;6.43;;;18.80;99.90;;;;;;5033845;28;20300;-70
2021/08/21 01:40:02;;;;;;;8.07;6.60;;;18.80;99.90;;;;;;5033842;28;20207;-70
2021/08/21 01:42:28;;;;;;;7.93;6.63;;;18.90;99.90;;;;;;5033552;28;20225;-70
2021/08/21 01:44:57;;;;;;;6.17;5.57;;;18.90;99.90;;;;;;5033262;28;20207;-71
2021/08/21 01:47:24;;;;;;;6.78;6.18;;;18.90;99.90;;;;;;5033697;28;20806;-70
2021/08/21 01:49:56;;;;;;;7.72;6.72;;;18.80;99.90;;;;;;5033490;28;20719;-70
2021/08/21 01:52:23;;;;;;;7.35;5.32;;;18.80;99.90;;;;;;5033063;28;20235;-70
2021/08/21 01:54:50;;;;;;;6.50;5.90;;;18.80;99.90;;;;;;5033616;28;20232;-70
2021/08/21 01:57:17;;;;;;;7.32;5.70;;;18.80;99.90;;;;;;5033525;28;20748;-70
2021/08/21 01:59:45;;;;;;;6.95;6.20;;;18.90;99.90;;;;;;5033325;28;20298;-70
2021/08/21 02:02:16;;;;;;;7.25;5.55;;;18.90;99.90;;;;;;5033556;28;20232;-70
2021/08/21 02:04:42;;;;;;;6.32;5.80;;;18.80;99.90;;;;;;5033822;28;20299;-70
2021/08/21 02:07:09;;;;;;;6.63;6.00;;;18.70;99.90;;;;;;5033530;28;20607;-70
2021/08/21 02:09:37;;;;;;;6.40;5.70;;;18.60;99.90;;;;;;5033418;28;20230;-70
2021/08/21 02:12:06;;;;;;;6.03;5.53;;;18.40;99.90;;;;;;5033377;28;20314;-71
2021/08/21 02:14:34;;;;;;;7.03;6.05;;;18.30;99.90;;;;;;5033429;28;20205;-71
2021/08/21 02:17:03;;;;;;;8.18;6.70;;;18.40;99.90;;;;;;5033222;28;20303;-71
2021/08/21 02:19:32;;;;;;;6.55;5.95;;;18.30;99.90;;;;;;5033398;28;20204;-71
2021/08/21 02:22:00;;;;;;;6.43;5.78;;;18.20;99.90;;;;;;5033168;28;20311;-71
2021/08/21 02:24:28;;;;;;;6.93;6.05;;;18.10;99.90;;;;;;5033631;28;20298;-71
2021/08/21 02:26:58;;;;;;;6.35;5.75;;;18.00;99.90;;;;;;5033206;28;20297;-70
2021/08/21 02:29:25;;;;;;;6.72;5.90;;;18.10;99.90;;;;;;5033692;28;20224;-70
2021/08/21 02:31:55;;;;;;;5.93;5.32;;;18.20;99.90;;;;;;5033321;28;20310;-70
2021/08/21 02:34:22;;;;;;;6.15;5.55;;;18.20;99.90;;;;;;5033514;28;20559;-71
2021/08/21 02:36:50;;;;;;;7.00;6.25;;;18.20;99.90;;;;;;5033192;28;20211;-70
2021/08/21 02:39:17;;;;;;;6.68;6.00;;;18.20;99.90;;;;;;5033152;28;20208;-70
2021/08/21 02:41:44;;;;;;;6.38;5.70;;;18.20;99.90;;;;;;5032895;28;20311;-71
2021/08/21 02:44:11;;;;;;;5.97;5.30;;;18.10;99.90;;;;;;5033216;28;20214;-71
2021/08/21 02:46:38;;;;;;;6.63;5.55;;;18.10;99.90;;;;;;5032983;28;20296;-70
2021/08/21 02:49:05;;;;;;;7.25;6.20;;;18.00;99.90;;;;;;5033099;28;20224;-71
2021/08/21 02:51:32;;;;;;;6.75;6.10;;;17.90;99.90;;;;;;5033186;28;20646;-70
2021/08/21 02:54:00;;;;;;;6.10;5.50;;;17.90;99.90;;;;;;5033174;28;20636;-70
2021/08/21 02:56:27;;;;;;;7.18;5.80;;;17.90;99.90;;;;;;5032902;28;20212;-70
2021/08/21 02:58:53;;;;;;;6.40;5.80;;;17.90;99.90;;;;;;5033025;28;20298;-70
2021/08/21 03:01:20;;;;;;;6.80;5.80;;;17.90;99.90;;;;;;5032734;28;20226;-70
2021/08/21 03:03:47;;;;;;;6.80;5.68;;;17.90;99.90;;;;;;5034903;28;20210;-70
2021/08/21 03:06:14;;;;;;;5.93;5.10;;;17.90;99.90;;;;;;5036205;28;20239;-70
2021/08/21 03:08:41;;;;;;;5.05;4.60;;;17.90;99.90;;;;;;5036628;28;20222;-70
2021/08/21 03:11:10;;;;;;;6.60;5.00;;;17.90;99.90;;;;;;5036423;28;20232;-70
2021/08/21 03:13:39;;;;;;;6.35;5.75;;;17.90;99.90;;;;;;5036389;28;20750;-70
2021/08/21 03:16:06;;;;;;;5.95;5.35;;;17.90;99.90;;;;;;5035961;28;20223;-70
2021/08/21 03:18:33;;;;;;;6.20;5.35;;;17.80;99.90;;;;;;5036373;28;20214;-70
2021/08/21 03:21:00;;;;;;;6.35;5.65;;;17.80;99.90;;;;;;5037101;28;20642;-70
2021/08/21 03:23:30;;;;;;;5.97;5.35;;;17.80;99.90;;;;;;5036355;28;20742;-70
2021/08/21 03:25:57;;;;;;;5.80;5.20;;;17.70;99.90;;;;;;5036151;28;20625;-70
2021/08/21 03:28:25;;;;;;;7.60;6.03;;;17.70;99.90;;;;;;5036220;28;20208;-70
2021/08/21 03:30:51;;;;;;;6.10;5.18;;;17.70;99.90;;;;;;5036061;28;20228;-70
2021/08/21 03:33:18;;;;;;;6.60;5.32;;;17.70;99.90;;;;;;5036175;28;20211;-70
2021/08/21 03:35:46;;;;;;;5.53;4.95;;;17.70;99.90;;;;;;5036019;28;20684;-70
2021/08/21 03:38:14;;;;;;;7.10;5.97;;;17.70;99.90;;;;;;5036054;28;20257;-70
2021/08/21 03:40:41;;;;;;;6.00;5.28;;;17.60;99.90;;;;;;5035956;28;20307;-70
2021/08/21 03:43:08;;;;;;;6.10;5.50;;;17.60;99.90;;;;;;5036076;28;20210;-70
2021/08/21 03:45:40;;;;;;;5.93;5.15;;;17.60;99.90;;;;;;5035686;28;20204;-70
2021/08/21 03:48:07;;;;;;;6.53;5.85;;;17.60;99.90;;;;;;5035884;28;20200;-70
2021/08/21 03:50:34;;;;;;;6.07;5.50;;;17.60;99.90;;;;;;5035671;28;20590;-70
2021/08/21 03:53:01;;;;;;;6.20;5.60;;;17.60;99.90;;;;;;5035884;28;20295;-70
2021/08/21 03:55:27;;;;;;;6.85;6.10;;;17.50;99.90;;;;;;5035405;28;20214;-70
2021/08/21 03:57:56;;;;;;;6.40;5.80;;;17.50;99.90;;;;;;5035543;28;20299;-70
2021/08/21 04:00:23;;;;;;;6.47;5.50;;;17.50;99.90;;;;;;5035564;28;20211;-70
2021/08/21 04:02:51;;;;;;;6.60;5.35;;;17.40;99.90;;;;;;5035367;28;20204;-70
2021/08/21 04:05:18;;;;;;;5.65;4.85;;;17.40;99.90;;;;;;5035667;28;20295;-70
2021/08/21 04:07:45;;;;;;;6.10;5.40;;;17.40;99.90;;;;;;5035534;28;20294;-70
2021/08/21 04:10:12;;;;;;;6.80;5.63;;;17.40;99.90;;;;;;5035709;28;20224;-70
2021/08/21 04:12:39;;;;;;;6.35;5.72;;;17.30;99.90;;;;;;5035141;28;20232;-70
2021/08/21 04:15:06;;;;;;;5.88;5.30;;;17.30;99.90;;;;;;5034754;28;20208;-70
2021/08/21 04:17:33;;;;;;;6.82;5.85;;;17.30;99.90;;;;;;5035287;28;20211;-70
2021/08/21 04:20:04;;;;;;;5.63;5.13;;;17.30;99.90;;;;;;5035304;28;20295;-70
2021/08/21 04:22:31;;;;;;;6.65;5.70;;;17.30;99.90;;;;;;5035621;28;20220;-70
2021/08/21 04:24:58;;;;;;;5.85;4.82;;;17.30;99.90;;;;;;5035276;28;20211;-70
2021/08/21 04:27:25;;;;;;;6.18;5.10;;;17.30;99.90;;;;;;5035057;28;20207;-70
2021/08/21 04:29:52;;;;;;;5.00;4.55;;;17.30;99.90;;;;;;5034812;28;20228;-70
2021/08/21 04:32:19;;;;;;;5.75;4.97;;;17.30;99.90;;;;;;5035056;28;20230;-70
2021/08/21 04:34:46;;;;;;;5.32;4.82;;;17.40;99.90;;;;;;5034694;28;20210;-71
2021/08/21 04:37:14;;;;;;;5.13;4.63;;;17.40;99.90;;;;;;5034974;28;20294;-70
2021/08/21 04:39:41;;;;;;;6.28;5.60;;;17.40;99.90;;;;;;5034837;28;20206;-70
2021/08/21 04:42:08;;;;;;;5.53;5.00;;;17.30;99.90;;;;;;5035277;28;20232;-70
2021/08/21 04:44:35;;;;;;;7.43;5.50;;;17.30;99.90;;;;;;5034651;28;20212;-70
2021/08/21 04:47:01;;;;;;;5.38;4.85;;;17.30;99.90;;;;;;5034675;28;20208;-70
2021/08/21 04:49:28;;;;;;;6.10;5.45;;;17.30;99.90;;;;;;5034681;28;20207;-70
2021/08/21 04:51:56;;;;;;;5.80;5.30;;;17.30;99.90;;;;;;5034483;28;20794;-70
2021/08/21 04:54:25;;;;;;;6.25;5.30;;;17.30;99.90;;;;;;5034382;28;20208;-70
2021/08/21 04:56:51;;;;;;;6.50;5.30;;;17.30;99.90;;;;;;5034192;28;20693;-70
2021/08/21 04:59:18;;;;;;;5.15;4.53;;;17.40;99.90;;;;;;5034529;28;20210;-70
2021/08/21 05:01:45;;;;;;;6.70;6.00;;;17.40;99.90;;;;;;5034701;28;20228;-70
2021/08/21 05:04:12;;;;;;;6.60;5.55;;;17.40;99.90;;;;;;5034464;28;20200;-70
2021/08/21 05:06:39;;;;;;;6.45;5.30;;;17.40;99.90;;;;;;5034243;28;20291;-70
2021/08/21 05:09:06;;;;;;;7.22;5.43;;;17.40;99.90;;;;;;5034346;28;20681;-70
2021/08/21 05:11:34;;;;;;;6.63;5.90;;;17.40;99.90;;;;;;5033965;28;20228;-70
2021/08/21 05:14:01;;;;;;;6.30;5.70;;;17.50;99.90;;;;;;5034085;28;20205;-70
2021/08/21 05:16:28;;;;;;;6.85;6.25;;;17.40;99.90;;;;;;5033852;28;20226;-70
2021/08/21 05:18:58;;;;;;;6.70;5.90;;;17.50;99.90;;;;;;5034215;28;20214;-70
2021/08/21 05:21:27;;;;;;;6.20;5.43;;;17.50;99.90;;;;;;5034107;28;20225;-70
2021/08/21 05:23:56;;;;;;;5.90;5.30;;;17.60;99.90;;;;;;5034579;28;20211;-70
2021/08/21 05:26:23;;;;;;;6.90;5.93;;;17.60;99.90;;;;;;5033154;28;20574;-70
2021/08/21 05:28:51;;;;;;;6.18;5.25;;;17.40;99.90;;;;;;5033852;28;20207;-70
2021/08/21 05:31:18;;;;;;;7.60;5.90;;;17.40;99.90;;;;;;5033756;28;20243;-70
2021/08/21 05:33:45;;;;;;;7.60;5.95;;;17.30;99.90;;;;;;5034191;28;20204;-70
2021/08/21 05:36:12;;;;;;;7.10;4.97;;;17.30;99.90;;;;;;5033730;28;20200;-70
2021/08/21 05:38:39;;;;;;;7.57;5.90;;;17.30;99.90;;;;;;5033919;28;20291;-70
2021/08/21 05:41:06;;;;;;;7.00;5.97;;;17.30;99.90;;;;;;5033770;28;20227;-70
2021/08/21 05:43:32;;;;;;;8.20;6.28;;;17.30;99.90;;;;;;5033900;28;20310;-70
2021/08/21 05:46:01;;;;;;;7.88;6.25;;;17.20;99.90;;;;;;5033383;28;20212;-70
2021/08/21 05:48:28;;;;;;;7.00;5.90;;;17.30;99.90;;;;;;5033770;28;20306;-70
2021/08/21 05:50:54;;;;;;;7.65;6.45;;;17.30;99.90;;;;;;5033569;28;20322;-70
2021/08/21 05:53:21;;;;;;;6.57;5.75;;;17.30;99.90;;;;;;5033706;28;20620;-70
2021/08/21 05:55:48;;;;;;;8.45;6.75;;;17.30;99.90;;;;;;5033306;28;20732;-70
2021/08/21 05:58:15;;;;;;;7.28;6.47;;;17.30;99.90;;;;;;5033846;28;20210;-70
2021/08/21 06:00:42;;;;;;;7.60;6.65;;;17.40;99.90;;;;;;5033554;28;20641;-70
2021/08/21 06:03:10;;;;;;;8.98;7.13;;;17.40;99.90;;;;;;5033559;28;20210;-70
2021/08/21 06:05:38;;;;;;;7.22;6.10;;;17.50;99.90;;;;;;5033430;28;20235;-70
2021/08/21 06:08:06;;;;;;;8.25;6.70;;;17.50;99.90;;;;;;5033279;28;20295;-70
2021/08/21 06:10:32;;;;;;;7.13;6.43;;;17.60;99.90;;;;;;5033235;28;20219;-70
2021/08/21 06:12:59;;;;;;;10.60;7.13;;;17.80;99.90;;;;;;5033561;28;20239;-70
2021/08/21 06:15:26;;;;;;;7.72;6.45;;;17.80;99.90;;;;;;5033220;28;20210;-70
2021/08/21 06:17:53;;;;;;;7.90;6.65;;;17.90;99.90;;;;;;5033359;28;20291;-71
2021/08/21 06:20:21;;;;;;;7.70;7.00;;;17.90;99.90;;;;;;5033304;28;20623;-70
2021/08/21 06:22:48;;;;;;;6.97;5.85;;;18.00;99.90;;;;;;5033482;28;20633;-70
2021/08/21 06:25:15;;;;;;;7.38;6.10;;;18.00;99.90;;;;;;5033144;28;20204;-70
2021/08/21 06:27:41;;;;;;;7.13;6.43;;;18.00;99.90;;;;;;5033221;28;20658;-70
2021/08/21 06:30:10;;;;;;;6.35;5.75;;;18.00;99.90;;;;;;5033250;28;20654;-70
2021/08/21 06:32:37;;;;;;;8.07;6.03;;;18.10;99.90;;;;;;5032926;28;20231;-70
2021/08/21 06:35:04;;;;;;;7.18;6.40;;;18.10;99.90;;;;;;5033134;28;20303;-71
2021/08/21 06:37:32;;;;;;;6.85;6.13;;;18.20;99.90;;;;;;5033308;28;20294;-70
2021/08/21 06:39:59;;;;;;;6.28;5.47;;;18.20;99.90;;;;;;5037034;28;20295;-70
2021/08/21 06:42:26;;;;;;;7.95;6.40;;;18.40;99.90;;;;;;5037153;28;20225;-70
2021/08/21 06:44:52;;;;;;;6.30;5.70;;;18.50;99.90;;;;;;5036812;28;20227;-70
2021/08/21 06:47:19;;;;;;;7.20;6.50;;;18.50;99.90;;;;;;5036815;28;20300;-70
2021/08/21 06:49:46;;;;;;;6.55;5.95;;;18.50;99.90;;;;;;5037281;28;20306;-70
2021/08/21 06:52:13;;;;;;;6.00;5.20;;;18.50;99.90;;;;;;5036588;28;20315;-70
2021/08/21 06:54:41;;;;;;;6.97;6.28;;;18.50;99.90;;;;;;5036765;28;20204;-70
2021/08/21 06:57:08;;;;;;;7.93;6.32;;;18.50;99.90;;;;;;5036708;28;20227;-70
2021/08/21 06:59:35;;;;;;;6.28;5.57;;;18.50;99.90;;;;;;5036783;28;20639;-70
2021/08/21 07:02:03;;;;;;;6.38;5.78;;;18.50;99.90;;;;;;5036759;28;20311;-70
2021/08/21 07:04:30;;;;;;;6.70;6.00;;;18.60;99.90;;;;;;5036801;28;20216;-70
2021/08/21 07:06:58;;;;;;;6.60;6.00;;;18.80;99.90;;;;;;5036537;28;20211;-70
2021/08/21 07:09:25;;;;;;;7.30;6.00;;;18.90;99.90;;;;;;5036921;28;20450;-70
2021/08/21 07:11:53;;;;;;;6.13;5.53;;;18.90;99.90;;;;;;5036209;28;20320;-70
2021/08/21 07:14:20;;;;;;;6.23;5.40;;;19.10;99.90;;;;;;5036810;28;20535;-70
2021/08/21 07:16:46;;;;;;;7.10;5.70;;;19.20;99.90;;;;;;5036178;28;20955;-70
2021/08/21 07:19:13;;;;;;;6.30;5.33;;;19.20;99.90;;;;;;5036471;28;20470;-70
2021/08/21 07:21:40;;;;;;;6.00;5.40;;;19.20;99.90;;;;;;5036363;28;20464;-70
2021/08/21 07:24:07;;;;;;;5.57;5.07;;;19.10;99.90;;;;;;5036411;28;20454;-70
2021/08/21 07:26:34;;;;;;;6.40;5.20;;;19.10;99.90;;;;;;5036000;28;20207;-70
2021/08/21 07:29:03;;;;;;;5.80;5.10;;;19.00;99.90;;;;;;5036303;28;20537;-70
2021/08/21 07:31:30;;;;;;;5.60;5.10;;;19.10;99.90;;;;;;5035882;28;20993;-70
2021/08/21 07:33:56;;;;;;;6.13;5.53;;;19.10;99.90;;;;;;5036217;28;20447;-70
2021/08/21 07:36:24;;;;;;;4.97;4.47;;;19.00;99.90;;;;;;5035876;28;21011;-70
2021/08/21 07:38:52;;;;;;;5.45;4.95;;;19.00;99.90;;;;;;5036129;28;20296;-70
2021/08/21 07:41:19;;;;;;;5.93;5.33;;;19.10;99.90;;;;;;5035930;28;20636;-71
2021/08/21 07:43:45;;;;;;;5.50;4.93;;;19.10;99.90;;;;;;5036043;28;20474;-70
2021/08/21 07:46:14;;;;;;;5.77;5.10;;;19.30;99.90;;;;;;5035795;28;20445;-70
2021/08/21 07:48:41;;;;;;;6.23;5.63;;;19.40;99.90;;;;;;5035944;28;20444;-70
2021/08/21 07:51:07;;;;;;;5.23;4.77;;;19.50;99.90;;;;;;5034564;28;20495;-70
2021/08/21 07:53:34;;;;;;;6.10;4.90;;;19.70;99.90;;;;;;5035884;28;20495;-70
2021/08/21 07:56:06;;;;;;;5.30;4.80;;;19.80;99.90;;;;;;5035775;28;20532;-70
2021/08/21 07:58:33;;;;;;;5.80;4.90;;;19.90;99.90;;;;;;5035847;28;20542;-70
2021/08/21 08:01:00;;;;;;;5.77;4.80;;;20.10;99.90;;;;;;5035625;28;20508;-70
2021/08/21 08:03:28;;;;;;;5.27;4.77;;;20.20;99.90;;;;;;5035734;28;20453;-70
2021/08/21 08:05:55;;;;;;;6.23;5.60;;;20.30;99.90;;;;;;5035366;28;20454;-70
2021/08/21 08:08:23;;;;;;;7.00;6.17;;;20.50;99.90;;;;;;5035507;28;20448;-70
2021/08/21 08:10:50;;;;;;;7.03;6.33;;;20.50;99.90;;;;;;5035384;28;20489;-70
2021/08/21 08:13:17;;;;;;;6.43;5.27;;;20.60;99.90;;;;;;5035443;28;20451;-70
2021/08/21 08:15:44;;;;;;;7.10;6.20;;;20.70;99.90;;;;;;5034995;28;20445;-71
2021/08/21 08:18:12;;;;;;;7.53;6.20;;;20.80;99.90;;;;;;5035866;28;20474;-70
2021/08/21 08:20:40;;;;;;;6.53;5.93;;;20.90;99.90;;;;;;5035146;28;20950;-70
2021/08/21 08:23:07;;;;;;;5.70;5.07;;;21.00;99.90;;;;;;5034997;28;20541;-70
2021/08/21 08:25:34;;;;;;;5.53;5.03;;;21.00;99.90;;;;;;5035105;28;20442;-70
2021/08/21 08:28:01;;;;;;;6.17;5.57;;;21.10;99.90;;;;;;5035187;28;20446;-70
2021/08/21 08:30:27;;;;;;;6.37;5.07;;;21.10;99.90;;;;;;5034834;28;21007;-70
2021/08/21 08:32:54;;;;;;;6.40;5.43;;;21.20;99.90;;;;;;5035068;28;20512;-70
2021/08/21 08:35:21;;;;;;;6.00;5.40;;;21.30;99.90;;;;;;5034765;28;20449;-70
2021/08/21 08:37:49;;;;;;;5.77;4.70;;;21.40;99.90;;;;;;5034985;28;20482;-70
2021/08/21 08:40:16;;;;;;;5.17;4.67;;;21.50;99.90;;;;;;5034737;28;20956;-70
2021/08/21 08:42:44;;;;;;;5.73;4.87;;;21.60;99.90;;;;;;5034897;28;20817;-70
2021/08/21 08:45:13;;;;;;;5.37;4.70;;;21.70;99.90;;;;;;5034792;28;20458;-71
2021/08/21 08:47:40;;;;;;;5.07;4.60;;;21.80;99.90;;;;;;5034806;28;20443;-70
2021/08/21 08:50:10;;;;;;;4.80;4.40;;;21.80;99.90;;;;;;5034706;28;20454;-71
2021/08/21 08:52:39;;;;;;;5.40;4.90;;;22.00;99.90;;;;;;5034322;28;20848;-70
2021/08/21 08:55:09;;;;;;;5.33;4.83;;;22.00;99.90;;;;;;5034503;28;20500;-71
2021/08/21 08:57:38;;;;;;;4.73;4.17;;;22.00;99.90;;;;;;5035145;28;20881;-71
2021/08/21 09:00:07;;;;;;;4.63;4.20;;;22.20;99.90;;;;;;5034345;28;20446;-70
2021/08/21 09:02:36;;;;;;;5.07;4.30;;;22.30;99.90;;;;;;5034025;28;20549;-71
2021/08/21 09:05:07;;;;;;;4.83;4.43;;;22.90;99.90;;;;;;5034380;28;20816;-71
2021/08/21 09:07:42;;;;;;;5.10;4.60;;;24.30;99.90;;;;;;5034521;28;20886;-71
2021/08/21 09:10:19;;;;;;;4.70;4.20;;;26.00;99.90;;;;;;5034389;28;20438;-71
2021/08/21 09:12:47;;;;;;;5.60;5.00;;;27.00;98.70;;;;;;5034255;28;20478;-71
2021/08/21 09:15:36;;;;;;;4.30;4.00;;;27.70;95.80;;;;;;5034833;28;20786;-72
2021/08/21 09:18:10;;;;;;;5.60;4.60;;;29.20;93.30;;;;;;5031343;28;20462;-71
2021/08/21 09:20:53;;;;;;;5.10;4.37;;;30.50;88.50;;;;;;5034424;28;20446;-71
2021/08/21 09:23:23;;;;;;;5.77;4.80;;;31.00;82.10;;;;;;5034200;28;20534;-71
2021/08/21 09:25:53;;;;;;;6.03;5.53;;;30.50;81.90;;;;;;5033762;28;20526;-71
2021/08/21 09:28:22;;;;;;;4.90;4.50;;;29.90;83.80;;;;;;5034081;28;20538;-69
2021/08/21 09:30:49;;;;;;;6.00;5.43;;;29.50;87.90;;;;;;5033928;28;20469;-71
2021/08/21 09:33:19;;;;;;;6.57;5.50;;;29.50;88.60;;;;;;5034163;28;20457;-71
2021/08/21 09:35:46;;;;;;;5.00;4.60;;;30.10;84.70;;;;;;5033926;28;20453;-71
2021/08/21 09:38:13;;;;;;;5.40;4.90;;;30.80;80.60;;;;;;5033961;28;20453;-71
2021/08/21 09:40:41;;;;;;;4.03;3.73;;;31.70;79.40;;;;;;5033615;28;20474;-71
2021/08/21 09:43:21;;;;;;;4.43;4.13;;;33.20;76.60;;;;;;5033972;28;20450;-69
2021/08/21 09:45:48;;;;;;;5.00;4.60;;;34.10;70.20;;;;;;5033777;28;20442;-69
2021/08/21 09:48:15;;;;;;;5.40;4.87;;;35.60;64.50;;;;;;5033985;28;20439;-69
2021/08/21 09:50:43;;;;;;;5.13;4.73;;;36.70;58.30;;;;;;5033672;28;20490;-70
2021/08/21 09:53:12;;;;;;;5.20;4.80;;;37.60;55.40;;;;;;5033384;28;20493;-69
2021/08/21 09:55:39;;;;;;;4.50;4.20;;;37.90;52.60;;;;;;5033376;28;20447;-70
2021/08/21 09:58:15;;;;;;;4.97;4.57;;;38.40;50.10;;;;;;5033526;28;20478;-69
2021/08/21 10:00:44;;;;;;;4.30;4.00;;;38.40;50.70;;;;;;5033551;28;20568;-69
2021/08/21 10:03:11;;;;;;;4.50;4.20;;;38.10;51.30;;;;;;5033592;28;20535;-70
2021/08/21 10:05:39;;;;;;;4.33;4.03;;;38.80;50.80;;;;;;5033390;28;20501;-70
2021/08/21 10:08:07;;;;;;;4.70;4.30;;;39.20;51.40;;;;;;5033468;28;20870;-70
2021/08/21 10:10:36;;;;;;;4.80;4.40;;;39.90;47.90;;;;;;5033702;28;20500;-70
2021/08/21 10:13:10;;;;;;;4.30;4.00;;;39.30;45.50;;;;;;5035846;28;20478;-70
2021/08/21 10:15:40;;;;;;;4.27;3.97;;;39.70;45.30;;;;;;5039843;28;20868;-70
2021/08/21 10:18:10;;;;;;;4.80;4.40;;;38.90;46.90;;;;;;5040085;28;20451;-69
2021/08/21 10:20:38;;;;;;;4.90;4.50;;;38.70;46.70;;;;;;5039945;28;20497;-70
2021/08/21 10:23:09;;;;;;;4.83;4.47;;;38.90;46.30;;;;;;5040092;28;20526;-70
2021/08/21 10:25:39;;;;;;;4.90;4.50;;;39.10;48.20;;;;;;5039723;28;20454;-69
2021/08/21 10:28:08;;;;;;;4.77;4.47;;;39.20;45.00;;;;;;5040251;28;20842;-69
2021/08/21 10:30:43;;;;;;;4.83;4.53;;;38.30;46.70;;;;;;5039864;28;20438;-69
2021/08/21 10:33:12;;;;;;;4.43;4.13;;;39.00;49.00;;;;;;5039843;28;20503;-70
2021/08/21 10:35:47;;;;;;;5.23;4.83;;;39.60;47.30;;;;;;5039580;28;20504;-69
2021/08/21 10:38:34;;;;;;;7.00;6.37;;;38.60;46.40;;;;;;5039789;28;20446;-70
2021/08/21 10:41:02;;;;;;;5.00;4.70;;;38.50;46.30;;;;;;5039601;28;20478;-70
2021/08/21 10:43:43;;;;;;;4.83;4.53;;;39.00;45.80;;;;;;5039859;28;20549;-70
2021/08/21 10:46:10;;;;;;;5.07;4.73;;;39.80;45.10;;;;;;5039687;28;20964;-70
2021/08/21 10:48:55;;;;;;;4.90;4.50;;;39.90;44.10;;;;;;5039752;28;20801;-70
2021/08/21 10:51:34;;;;;;;5.00;4.70;;;39.70;44.20;;;;;;5039648;28;20473;-70
2021/08/21 10:54:21;;;;;;;5.80;5.30;;;40.40;43.10;;;;;;5039777;28;20447;-70
2021/08/21 10:56:48;;;;;;;5.13;4.80;;;40.50;42.90;;;;;;5039425;28;20454;-70
2021/08/21 10:59:42;;;;;;;5.10;4.70;;;39.70;42.60;;;;;;5039639;28;20546;-69
2021/08/21 11:02:40;;;;;;;5.60;5.10;;;39.10;43.70;;;;;;5040027;28;20554;-70
2021/08/21 11:05:47;;;;;;;5.73;5.23;;;39.20;44.10;;;;;;5039375;28;20457;-69
2021/08/21 11:08:16;;;;;;;5.43;5.03;;;38.90;43.80;;;;;;5039418;28;20457;-70
2021/08/21 11:10:43;;;;;;;5.53;5.13;;;39.20;45.60;;;;;;5039391;28;20470;-69
2021/08/21 11:13:10;;;;;;;6.13;5.63;;;39.00;44.10;;;;;;5039272;28;20483;-70
2021/08/21 11:15:37;;;;;;;5.20;4.80;;;39.20;43.90;;;;;;5039206;28;20480;-70
2021/08/21 11:18:18;;;;;;;5.40;5.00;;;39.00;45.00;;;;;;5039542;28;20778;-70
2021/08/21 11:20:45;;;;;;;5.47;4.93;;;38.40;44.90;;;;;;5039269;28;20474;-69
2021/08/21 11:23:20;;;;;;;5.30;4.90;;;37.80;47.00;;;;;;5039594;28;20442;-69
2021/08/21 11:25:47;;;;;;;5.77;5.37;;;37.00;46.70;;;;;;5036295;28;20698;-69
2021/08/21 11:28:21;;;;;;;6.57;5.97;;;36.60;49.20;;;;;;5036278;28;20443;-70
2021/08/21 11:31:09;;;;;;;5.97;5.47;;;36.10;48.90;;;;;;5036271;28;20467;-69
2021/08/21 11:33:39;;;;;;;6.07;5.60;;;35.20;49.30;;;;;;5036244;28;20478;-69
2021/08/21 11:36:07;;;;;;;5.87;5.37;;;34.50;53.70;;;;;;5036081;28;20454;-69
2021/08/21 11:38:37;;;;;;;5.73;5.23;;;33.90;54.20;;;;;;5036104;28;20446;-69
2021/08/21 11:41:10;;;;;;;5.90;5.40;;;33.40;53.30;;;;;;5036148;28;20466;-69
2021/08/21 11:43:40;;;;;;;5.90;5.40;;;32.80;53.90;;;;;;5036095;28;20452;-69
2021/08/21 11:46:07;;;;;;;6.63;5.90;;;32.10;54.70;;;;;;5035892;28;20457;-69
2021/08/21 11:48:36;;;;;;;8.23;7.40;;;31.70;56.00;;;;;;5035986;28;20610;-69
2021/08/21 11:51:04;;;;;;;7.50;6.53;;;31.20;57.10;;;;;;5035630;28;20545;-69
2021/08/21 11:53:33;;;;;;;5.73;5.30;;;31.00;58.60;;;;;;5035761;28;20493;-71
2021/08/21 11:56:02;;;;;;;6.57;6.00;;;30.60;57.30;;;;;;5035542;28;20454;-71
2021/08/21 11:58:30;;;;;;;6.27;5.63;;;30.40;58.60;;;;;;5035865;28;20439;-71
2021/08/21 12:01:03;;;;;;;6.03;5.43;;;30.40;60.30;;;;;;5035612;28;20466;-71
2021/08/21 12:03:35;;;;;;;7.13;5.80;;;30.20;62.40;;;;;;5035775;28;20435;-71
2021/08/21 12:06:02;;;;;;;6.10;5.60;;;30.20;63.90;;;;;;5035361;28;20447;-71
2021/08/21 12:08:30;;;;;;;6.27;5.77;;;30.20;62.30;;;;;;5035653;28;20872;-71
2021/08/21 12:10:58;;;;;;;4.90;4.50;;;30.10;62.10;;;;;;5035502;28;20473;-71
2021/08/21 12:13:28;;;;;;;5.77;5.20;;;30.10;62.30;;;;;;5035533;28;20844;-71
2021/08/21 12:15:57;;;;;;;5.77;5.17;;;30.10;63.20;;;;;;5035087;28;20497;-71
2021/08/21 12:18:26;;;;;;;5.77;5.30;;;30.00;64.10;;;;;;5035915;28;20465;-72
2021/08/21 12:20:54;;;;;;;5.57;5.07;;;30.00;63.10;;;;;;5035509;28;20977;-71
2021/08/21 12:23:21;;;;;;;6.33;5.50;;;30.00;62.10;;;;;;5035430;28;20461;-71
2021/08/21 12:25:51;;;;;;;5.57;5.07;;;29.90;59.80;;;;;;5034985;28;20448;-71
2021/08/21 12:28:21;;;;;;;6.07;5.33;;;29.80;62.60;;;;;;5035220;28;20443;-71
2021/08/21 12:31:01;;;;;;;5.80;5.30;;;29.90;63.80;;;;;;5035141;28;20471;-71
2021/08/21 12:33:34;;;;;;;6.70;6.00;;;29.90;62.80;;;;;;5035157;28;20486;-71
2021/08/21 12:36:12;;;;;;;6.33;5.73;;;30.00;63.70;;;;;;5034491;28;20457;-71
2021/08/21 12:38:39;;;;;;;6.70;6.10;;;30.00;62.80;;;;;;5034990;28;20453;-71
2021/08/21 12:41:07;;;;;;;5.20;4.70;;;30.00;63.00;;;;;;5034830;28;20477;-71
2021/08/21 12:43:34;;;;;;;5.00;4.60;;;29.90;61.50;;;;;;5035003;28;20437;-71
2021/08/21 12:46:03;;;;;;;7.00;4.43;;;29.90;64.50;;;;;;5034903;28;20567;-71
2021/08/21 12:48:30;;;;;;;4.63;4.23;;;30.00;59.60;;;;;;5034574;28;20941;-71
2021/08/21 12:51:00;;;;;;;4.33;3.93;;;30.00;59.10;;;;;;5034669;28;20918;-71
2021/08/21 12:53:27;;;;;;;4.60;4.20;;;29.90;62.90;;;;;;5034709;28;20467;-71
2021/08/21 12:56:10;;;;;;;4.63;4.20;;;29.90;59.10;;;;;;5034375;28;20519;-71